Velohotel Hirschen Ramsen
Wetterdaten: aktuell Dienstag, 02.06.2020 12:15
Datum Zeit Temp.Aussen FeuchtAussen Luftdruck Regen Wind Richtung Richtung Sonnenschein Solar Taupunkt Windchill Windben
02.06.2020 12:15 23.1 C 44 % 1015.6 hPa 0.0 l/m 9.4 km/h (2 Bft) O 100 5 min 837 W/m 10.2 C 23.1 C 14.5 km/h (3 Bft)
02.06.2020 12:10 22.8 C 47 % 1015.7 hPa 0.0 l/m 5.2 km/h (1 Bft) O-SO 112 5 min 781 W/m 10.9 C 22.8 C 14.5 km/h (3 Bft)
02.06.2020 12:05 22.6 C 45 % 1015.8 hPa 0.0 l/m 8.2 km/h (2 Bft) SO 124 5 min 729 W/m 10.1 C 22.6 C 12.9 km/h (3 Bft)
02.06.2020 12:00 22.4 C 45 % 1015.9 hPa 0.0 l/m 7.8 km/h (2 Bft) SO 124 5 min 690 W/m 9.9 C 22.4 C 16.1 km/h (3 Bft)
02.06.2020 11:55 22.4 C 45 % 1015.9 hPa 0.0 l/m 11.3 km/h (2 Bft) SO 137 5 min 670 W/m 9.9 C 22.4 C 19.3 km/h (3 Bft)
02.06.2020 11:50 22.5 C 45 % 1015.9 hPa 0.0 l/m 4.7 km/h (1 Bft) O 92 5 min 673 W/m 10.0 C 22.5 C 11.3 km/h (2 Bft)
02.06.2020 11:45 22.1 C 47 % 1015.9 hPa 0.0 l/m 8.8 km/h (2 Bft) O 90 5 min 694 W/m 10.3 C 22.1 C 16.1 km/h (3 Bft)
02.06.2020 11:40 22.2 C 46 % 1015.9 hPa 0.0 l/m 8.8 km/h (2 Bft) O-SO 106 5 min 728 W/m 10.0 C 22.2 C 17.7 km/h (3 Bft)
02.06.2020 11:35 22.1 C 49 % 1015.9 hPa 0.0 l/m 3.0 km/h (1 Bft) O-SO 118 5 min 761 W/m 10.9 C 22.1 C 8.0 km/h (2 Bft)
02.06.2020 11:30 21.9 C 48 % 1016.1 hPa 0.0 l/m 7.6 km/h (2 Bft) O-SO 119 5 min 789 W/m 10.4 C 21.9 C 14.5 km/h (3 Bft)
02.06.2020 11:25 22.0 C 48 % 1016.1 hPa 0.0 l/m 7.9 km/h (2 Bft) O 82 5 min 806 W/m 10.5 C 22.0 C 14.5 km/h (3 Bft)
02.06.2020 11:20 21.9 C 50 % 1016.1 hPa 0.0 l/m 5.5 km/h (2 Bft) O-SO 108 5 min 805 W/m 11.0 C 21.9 C 14.5 km/h (3 Bft)
02.06.2020 11:15 22.0 C 49 % 1016.1 hPa 0.0 l/m 6.3 km/h (2 Bft) SO 139 5 min 798 W/m 10.8 C 22.0 C 20.9 km/h (4 Bft)
02.06.2020 11:10 21.8 C 50 % 1016.2 hPa 0.0 l/m 3.6 km/h (1 Bft) O 98 5 min 788 W/m 10.9 C 21.8 C 9.7 km/h (2 Bft)
02.06.2020 11:05 21.3 C 50 % 1016.3 hPa 0.0 l/m 7.8 km/h (2 Bft) O-SO 107 5 min 778 W/m 10.4 C 21.3 C 14.5 km/h (3 Bft)
02.06.2020 11:00 21.3 C 51 % 1016.3 hPa 0.0 l/m 6.2 km/h (2 Bft) SO 137 5 min 767 W/m 10.7 C 21.3 C 12.9 km/h (3 Bft)
02.06.2020 10:55 20.9 C 50 % 1016.3 hPa 0.0 l/m 8.1 km/h (2 Bft) SO 136 5 min 757 W/m 10.1 C 20.9 C 14.5 km/h (3 Bft)
02.06.2020 10:50 20.9 C 49 % 1016.4 hPa 0.0 l/m 8.4 km/h (2 Bft) SO 143 5 min 749 W/m 9.8 C 20.9 C 17.7 km/h (3 Bft)
02.06.2020 10:45 21.0 C 50 % 1016.4 hPa 0.0 l/m 4.7 km/h (1 Bft) S 180 5 min 738 W/m 10.2 C 21.0 C 12.9 km/h (3 Bft)
02.06.2020 10:40 20.8 C 50 % 1016.4 hPa 0.0 l/m 8.0 km/h (2 Bft) O 86 5 min 728 W/m 10.0 C 20.8 C 14.5 km/h (3 Bft)
02.06.2020 10:35 20.7 C 51 % 1016.4 hPa 0.0 l/m 5.1 km/h (1 Bft) O-SO 113 5 min 717 W/m 10.2 C 20.7 C 12.9 km/h (3 Bft)
02.06.2020 10:30 20.2 C 51 % 1016.5 hPa 0.0 l/m 7.4 km/h (2 Bft) SO 134 5 min 705 W/m 9.7 C 20.2 C 12.9 km/h (3 Bft)
02.06.2020 10:25 20.3 C 52 % 1016.5 hPa 0.0 l/m 7.2 km/h (2 Bft) O-SO 113 5 min 693 W/m 10.1 C 20.3 C 14.5 km/h (3 Bft)
02.06.2020 10:20 20.2 C 52 % 1016.6 hPa 0.0 l/m 5.4 km/h (2 Bft) O-SO 110 5 min 682 W/m 10.0 C 20.2 C 11.3 km/h (2 Bft)
02.06.2020 10:15 20.4 C 51 % 1016.6 hPa 0.0 l/m 5.4 km/h (2 Bft) O-SO 117 5 min 669 W/m 9.9 C 20.4 C 11.3 km/h (2 Bft)
02.06.2020 10:10 20.3 C 52 % 1016.6 hPa 0.0 l/m 4.5 km/h (1 Bft) O-SO 114 5 min 658 W/m 10.1 C 20.3 C 9.7 km/h (2 Bft)
02.06.2020 10:05 20.0 C 52 % 1016.6 hPa 0.0 l/m 4.7 km/h (1 Bft) O 97 5 min 646 W/m 9.8 C 20.0 C 11.3 km/h (2 Bft)
02.06.2020 10:00 20.1 C 51 % 1016.7 hPa 0.0 l/m 5.0 km/h (1 Bft) SO 140 5 min 634 W/m 9.6 C 20.1 C 12.9 km/h (3 Bft)
02.06.2020 09:55 20.3 C 51 % 1016.7 hPa 0.0 l/m 4.1 km/h (1 Bft) O-SO 119 5 min 623 W/m 9.8 C 20.3 C 8.0 km/h (2 Bft)
02.06.2020 09:50 20.2 C 51 % 1016.7 hPa 0.0 l/m 4.5 km/h (1 Bft) O-SO 120 5 min 608 W/m 9.7 C 20.2 C 11.3 km/h (2 Bft)
02.06.2020 09:45 19.9 C 51 % 1016.7 hPa 0.0 l/m 2.6 km/h (1 Bft) O-SO 113 5 min 592 W/m 9.5 C 19.9 C 8.0 km/h (2 Bft)
02.06.2020 09:40 19.6 C 53 % 1016.7 hPa 0.0 l/m 4.3 km/h (1 Bft) SO 143 5 min 579 W/m 9.8 C 19.6 C 6.4 km/h (2 Bft)
02.06.2020 09:35 19.4 C 52 % 1016.8 hPa 0.0 l/m 5.5 km/h (2 Bft) O-SO 121 5 min 565 W/m 9.3 C 19.4 C 11.3 km/h (2 Bft)
02.06.2020 09:30 19.2 C 52 % 1016.8 hPa 0.0 l/m 5.4 km/h (2 Bft) SO 128 5 min 555 W/m 9.1 C 19.2 C 9.7 km/h (2 Bft)
02.06.2020 09:25 19.3 C 53 % 1016.9 hPa 0.0 l/m 3.8 km/h (1 Bft) SO 140 5 min 542 W/m 9.5 C 19.3 C 9.7 km/h (2 Bft)
02.06.2020 09:20 19.2 C 53 % 1016.9 hPa 0.0 l/m 4.7 km/h (1 Bft) O-SO 120 5 min 529 W/m 9.4 C 19.2 C 11.3 km/h (2 Bft)
02.06.2020 09:15 19.1 C 54 % 1016.9 hPa 0.0 l/m 4.0 km/h (1 Bft) O-SO 117 5 min 515 W/m 9.6 C 19.1 C 8.0 km/h (2 Bft)
02.06.2020 09:10 19.3 C 53 % 1017.0 hPa 0.0 l/m 3.8 km/h (1 Bft) O-SO 114 5 min 502 W/m 9.5 C 19.3 C 8.0 km/h (2 Bft)
02.06.2020 09:05 19.1 C 56 % 1016.9 hPa 0.0 l/m 2.0 km/h (1 Bft) O 88 5 min 487 W/m 10.1 C 19.1 C 8.0 km/h (2 Bft)
02.06.2020 09:00 18.8 C 55 % 1016.9 hPa 0.0 l/m 3.2 km/h (1 Bft) O 86 5 min 473 W/m 9.6 C 18.8 C 4.8 km/h (1 Bft)
02.06.2020 08:55 18.9 C 55 % 1016.9 hPa 0.0 l/m 2.8 km/h (1 Bft) O 97 5 min 459 W/m 9.7 C 18.9 C 4.8 km/h (1 Bft)
02.06.2020 08:50 18.7 C 55 % 1016.9 hPa 0.0 l/m 3.2 km/h (1 Bft) N-NO 18 5 min 445 W/m 9.5 C 18.7 C 6.4 km/h (2 Bft)
02.06.2020 08:45 18.5 C 55 % 1016.9 hPa 0.0 l/m 2.2 km/h (1 Bft) N 351 5 min 431 W/m 9.3 C 18.5 C 4.8 km/h (1 Bft)
02.06.2020 08:40 18.3 C 57 % 1016.9 hPa 0.0 l/m 1.6 km/h (1 Bft) N-NW 346 5 min 416 W/m 9.6 C 18.3 C 4.8 km/h (1 Bft)
02.06.2020 08:35 17.8 C 57 % 1017.0 hPa 0.0 l/m 1.6 km/h (1 Bft) N-NW 344 5 min 402 W/m 9.2 C 17.8 C 4.8 km/h (1 Bft)
02.06.2020 08:30 17.9 C 56 % 1017.0 hPa 0.0 l/m 2.3 km/h (1 Bft) N-NW 344 5 min 387 W/m 9.0 C 17.9 C 4.8 km/h (1 Bft)
02.06.2020 08:25 17.9 C 57 % 1017.0 hPa 0.0 l/m 1.4 km/h (1 Bft) N-NW 330 5 min 373 W/m 9.3 C 17.9 C 3.2 km/h (1 Bft)
02.06.2020 08:20 17.8 C 57 % 1017.0 hPa 0.0 l/m 1.7 km/h (1 Bft) N-NW 329 5 min 359 W/m 9.2 C 17.8 C 3.2 km/h (1 Bft)
02.06.2020 08:15 17.6 C 57 % 1017.0 hPa 0.0 l/m 0.9 km/h (0 Bft) NW 326 5 min 344 W/m 9.0 C 17.6 C 3.2 km/h (1 Bft)
02.06.2020 08:10 17.3 C 56 % 1017.0 hPa 0.0 l/m 1.0 km/h (0 Bft) NW 326 5 min 329 W/m 8.4 C 17.3 C 1.6 km/h (1 Bft)
02.06.2020 08:05 17.3 C 57 % 1017.0 hPa 0.0 l/m 1.3 km/h (1 Bft) NW 326 5 min 310 W/m 8.7 C 17.3 C 3.2 km/h (1 Bft)
02.06.2020 08:00 17.5 C 57 % 1017.0 hPa 0.0 l/m 0.5 km/h (0 Bft) NW 326 5 min 289 W/m 8.9 C 17.5 C 1.6 km/h (1 Bft)
02.06.2020 07:55 17.4 C 60 % 1017.0 hPa 0.0 l/m 0.3 km/h (0 Bft) NO 44 5 min 266 W/m 9.6 C 17.4 C 1.6 km/h (1 Bft)
02.06.2020 07:50 16.9 C 61 % 1017.0 hPa 0.0 l/m 0.2 km/h (0 Bft) NO 44 5 min 227 W/m 9.3 C 16.9 C 1.6 km/h (1 Bft)
02.06.2020 07:45 16.4 C 63 % 1017.1 hPa 0.0 l/m 0.0 km/h (0 Bft) NO 44 0 min 184 W/m 9.3 C 16.4 C 1.6 km/h (1 Bft)
02.06.2020 07:40 15.8 C 66 % 1017.0 hPa 0.0 l/m 0.0 km/h (0 Bft) NO 44 0 min 172 W/m 9.5 C 15.8 C 1.6 km/h (1 Bft)
02.06.2020 07:35 15.3 C 67 % 1017.0 hPa 0.0 l/m 0.3 km/h (0 Bft) NO 44 5 min 175 W/m 9.2 C 15.3 C 1.6 km/h (1 Bft)
02.06.2020 07:30 15.1 C 68 % 1017.0 hPa 0.0 l/m 0.2 km/h (0 Bft) NO 44 5 min 178 W/m 9.2 C 15.1 C 1.6 km/h (1 Bft)
02.06.2020 07:25 14.6 C 69 % 1017.0 hPa 0.0 l/m 0.1 km/h (0 Bft) NO 44 5 min 167 W/m 9.0 C 14.6 C 1.6 km/h (1 Bft)
02.06.2020 07:20 14.3 C 69 % 1017.0 hPa 0.0 l/m 0.5 km/h (0 Bft) NO 44 5 min 155 W/m 8.7 C 14.3 C 1.6 km/h (1 Bft)
02.06.2020 07:15 14.1 C 70 % 1017.1 hPa 0.0 l/m 0.1 km/h (0 Bft) NO 44 5 min 145 W/m 8.7 C 14.1 C 1.6 km/h (1 Bft)
02.06.2020 07:10 13.6 C 72 % 1017.1 hPa 0.0 l/m 0.4 km/h (0 Bft) NO 44 5 min 133 W/m 8.6 C 13.6 C 1.6 km/h (1 Bft)
02.06.2020 07:05 13.1 C 74 % 1017.1 hPa 0.0 l/m 0.5 km/h (0 Bft) NO 44 0 min 116 W/m 8.6 C 13.1 C 3.2 km/h (1 Bft)
02.06.2020 07:00 12.5 C 75 % 1017.1 hPa 0.0 l/m 0.6 km/h (0 Bft) NO 38 0 min 102 W/m 8.2 C 12.5 C 3.2 km/h (1 Bft)
02.06.2020 06:55 12.1 C 75 % 1017.1 hPa 0.0 l/m 0.8 km/h (0 Bft) NO 36 0 min 93 W/m 7.8 C 12.1 C 3.2 km/h (1 Bft)
02.06.2020 06:50 11.8 C 75 % 1017.0 hPa 0.0 l/m 0.6 km/h (0 Bft) NO 36 0 min 87 W/m 7.5 C 11.8 C 1.6 km/h (1 Bft)
02.06.2020 06:45 11.7 C 77 % 1017.0 hPa 0.0 l/m 0.0 km/h (0 Bft) NO 36 0 min 82 W/m 7.8 C 11.7 C 1.6 km/h (1 Bft)
02.06.2020 06:40 11.1 C 78 % 1017.0 hPa 0.0 l/m 0.4 km/h (0 Bft) NO 36 0 min 77 W/m 7.4 C 11.1 C 1.6 km/h (1 Bft)
02.06.2020 06:35 10.8 C 78 % 1016.9 hPa 0.0 l/m 1.2 km/h (1 Bft) NO 55 0 min 69 W/m 7.1 C 10.8 C 3.2 km/h (1 Bft)
02.06.2020 06:30 10.5 C 80 % 1016.9 hPa 0.0 l/m 0.0 km/h (0 Bft) NO 51 0 min 60 W/m 7.2 C 10.5 C 1.6 km/h (1 Bft)
02.06.2020 06:25 10.2 C 79 % 1016.9 hPa 0.0 l/m 0.0 km/h (0 Bft) NO 51 0 min 52 W/m 6.7 C 10.2 C 0.0 km/h (0 Bft)
02.06.2020 06:20 10.1 C 80 % 1016.8 hPa 0.0 l/m 0.0 km/h (0 Bft) NO 51 0 min 45 W/m 6.8 C 10.1 C 0.0 km/h (0 Bft)
02.06.2020 06:15 9.8 C 80 % 1016.8 hPa 0.0 l/m 0.2 km/h (0 Bft) NO 51 0 min 38 W/m 6.5 C 9.8 C 1.6 km/h (1 Bft)
02.06.2020 06:10 9.6 C 80 % 1016.7 hPa 0.0 l/m 1.4 km/h (1 Bft) NO 51 0 min 31 W/m 6.3 C 9.6 C 4.8 km/h (1 Bft)
02.06.2020 06:05 9.4 C 81 % 1016.8 hPa 0.0 l/m 0.3 km/h (0 Bft) NO 51 0 min 26 W/m 6.3 C 9.4 C 3.2 km/h (1 Bft)
02.06.2020 06:00 9.3 C 81 % 1016.7 hPa 0.0 l/m 0.2 km/h (0 Bft) NO 51 0 min 21 W/m 6.2 C 9.3 C 1.6 km/h (1 Bft)
02.06.2020 05:55 9.2 C 81 % 1016.7 hPa 0.0 l/m 0.0 km/h (0 Bft) NO 51 0 min 17 W/m 6.1 C 9.2 C 1.6 km/h (1 Bft)
02.06.2020 05:50 9.1 C 80 % 1016.7 hPa 0.0 l/m 0.2 km/h (0 Bft) NO 51 0 min 13 W/m 5.8 C 9.1 C 1.6 km/h (1 Bft)
02.06.2020 05:45 9.1 C 80 % 1016.6 hPa 0.0 l/m 0.0 km/h (0 Bft) NO 51 0 min 10 W/m 5.8 C 9.1 C 0.0 km/h (0 Bft)
02.06.2020 05:40 9.3 C 80 % 1016.6 hPa 0.0 l/m 0.1 km/h (0 Bft) NO 51 0 min 8 W/m 6.0 C 9.3 C 1.6 km/h (1 Bft)
02.06.2020 05:35 9.4 C 79 % 1016.6 hPa 0.0 l/m 1.1 km/h (1 Bft) NO 51 0 min 6 W/m 5.9 C 9.4 C 3.2 km/h (1 Bft)
02.06.2020 05:30 9.7 C 79 % 1016.5 hPa 0.0 l/m 1.7 km/h (1 Bft) NO 51 0 min 2 W/m 6.2 C 9.7 C 4.8 km/h (1 Bft)
02.06.2020 05:25 9.8 C 79 % 1016.4 hPa 0.0 l/m 0.9 km/h (0 Bft) NO 51 0 min 0 W/m 6.3 C 9.8 C 3.2 km/h (1 Bft)
02.06.2020 05:20 9.9 C 79 % 1016.4 hPa 0.0 l/m 0.7 km/h (0 Bft) NO 51 0 min 0 W/m 6.4 C 9.9 C 1.6 km/h (1 Bft)
02.06.2020 05:15 10.1 C 78 % 1016.4 hPa 0.0 l/m 0.2 km/h (0 Bft) NO 51 0 min 0 W/m 6.4 C 10.1 C 1.6 km/h (1 Bft)
02.06.2020 05:10 10.2 C 78 % 1016.4 hPa 0.0 l/m 0.7 km/h (0 Bft) NO 51 0 min 0 W/m 6.5 C 10.2 C 3.2 km/h (1 Bft)
02.06.2020 05:05 10.3 C 79 % 1016.4 hPa 0.0 l/m 1.4 km/h (1 Bft) NO 51 0 min 0 W/m 6.8 C 10.3 C 3.2 km/h (1 Bft)
02.06.2020 05:00 10.3 C 79 % 1016.4 hPa 0.0 l/m 0.8 km/h (0 Bft) NO 51 0 min 0 W/m 6.8 C 10.3 C 3.2 km/h (1 Bft)
02.06.2020 04:55 10.2 C 79 % 1016.4 hPa 0.0 l/m 2.1 km/h (1 Bft) NO 51 0 min 0 W/m 6.7 C 10.2 C 4.8 km/h (1 Bft)
02.06.2020 04:50 10.1 C 79 % 1016.3 hPa 0.0 l/m 2.8 km/h (1 Bft) NO 51 0 min 0 W/m 6.6 C 10.1 C 4.8 km/h (1 Bft)
02.06.2020 04:45 10.1 C 78 % 1016.3 hPa 0.0 l/m 2.6 km/h (1 Bft) NO 51 0 min 0 W/m 6.4 C 10.1 C 4.8 km/h (1 Bft)
02.06.2020 04:40 10.3 C 78 % 1016.3 hPa 0.0 l/m 1.3 km/h (1 Bft) NO 51 0 min 0 W/m 6.6 C 10.3 C 3.2 km/h (1 Bft)
02.06.2020 04:35 10.3 C 78 % 1016.3 hPa 0.0 l/m 2.2 km/h (1 Bft) NO 51 0 min 0 W/m 6.6 C 10.3 C 4.8 km/h (1 Bft)
02.06.2020 04:30 10.6 C 77 % 1016.3 hPa 0.0 l/m 2.7 km/h (1 Bft) NO 51 0 min 0 W/m 6.7 C 10.6 C 4.8 km/h (1 Bft)
02.06.2020 04:25 10.9 C 76 % 1016.3 hPa 0.0 l/m 2.3 km/h (1 Bft) NO 51 0 min 0 W/m 6.8 C 10.9 C 4.8 km/h (1 Bft)
02.06.2020 04:20 11.2 C 76 % 1016.3 hPa 0.0 l/m 3.7 km/h (1 Bft) NO 51 0 min 0 W/m 7.1 C 11.2 C 6.4 km/h (2 Bft)
02.06.2020 04:15 11.1 C 77 % 1016.3 hPa 0.0 l/m 4.0 km/h (1 Bft) NO 51 0 min 0 W/m 7.2 C 11.1 C 6.4 km/h (2 Bft)
02.06.2020 04:10 10.7 C 78 % 1016.3 hPa 0.0 l/m 2.7 km/h (1 Bft) NO 50 0 min 0 W/m 7.0 C 10.7 C 4.8 km/h (1 Bft)
02.06.2020 04:05 10.6 C 78 % 1016.4 hPa 0.0 l/m 2.1 km/h (1 Bft) NO 50 0 min 0 W/m 6.9 C 10.6 C 4.8 km/h (1 Bft)
02.06.2020 04:00 10.5 C 78 % 1016.2 hPa 0.0 l/m 3.1 km/h (1 Bft) NO 50 0 min 0 W/m 6.8 C 10.5 C 6.4 km/h (2 Bft)
02.06.2020 03:55 10.6 C 78 % 1016.2 hPa 0.0 l/m 3.1 km/h (1 Bft) NO 46 0 min 0 W/m 6.9 C 10.6 C 4.8 km/h (1 Bft)
02.06.2020 03:50 10.8 C 77 % 1016.2 hPa 0.0 l/m 2.5 km/h (1 Bft) NO 44 0 min 0 W/m 6.9 C 10.8 C 4.8 km/h (1 Bft)
02.06.2020 03:45 10.9 C 76 % 1016.2 hPa 0.0 l/m 2.4 km/h (1 Bft) N 10 0 min 0 W/m 6.8 C 10.9 C 3.2 km/h (1 Bft)
02.06.2020 03:40 11.1 C 76 % 1016.2 hPa 0.0 l/m 2.4 km/h (1 Bft) N 9 0 min 0 W/m 7.0 C 11.1 C 4.8 km/h (1 Bft)
02.06.2020 03:35 11.6 C 74 % 1016.3 hPa 0.0 l/m 2.4 km/h (1 Bft) N 5 0 min 0 W/m 7.1 C 11.6 C 6.4 km/h (2 Bft)
02.06.2020 03:30 11.9 C 73 % 1016.2 hPa 0.0 l/m 0.3 km/h (0 Bft) N 350 0 min 0 W/m 7.2 C 11.9 C 3.2 km/h (1 Bft)
02.06.2020 03:25 12.3 C 72 % 1016.3 hPa 0.0 l/m 0.1 km/h (0 Bft) N 350 0 min 0 W/m 7.4 C 12.3 C 1.6 km/h (1 Bft)
02.06.2020 03:20 12.5 C 72 % 1016.3 hPa 0.0 l/m 1.8 km/h (1 Bft) N 350 0 min 0 W/m 7.6 C 12.5 C 4.8 km/h (1 Bft)
02.06.2020 03:15 12.4 C 72 % 1016.3 hPa 0.0 l/m 1.5 km/h (1 Bft) N 349 0 min 0 W/m 7.5 C 12.4 C 4.8 km/h (1 Bft)
02.06.2020 03:10 12.4 C 73 % 1016.4 hPa 0.0 l/m 1.2 km/h (1 Bft) N 349 0 min 0 W/m 7.7 C 12.4 C 4.8 km/h (1 Bft)
02.06.2020 03:05 12.4 C 73 % 1016.3 hPa 0.0 l/m 2.1 km/h (1 Bft) N-NW 348 0 min 0 W/m 7.7 C 12.4 C 4.8 km/h (1 Bft)
02.06.2020 03:00 12.2 C 74 % 1016.4 hPa 0.0 l/m 1.5 km/h (1 Bft) N-NW 348 0 min 0 W/m 7.7 C 12.2 C 3.2 km/h (1 Bft)
02.06.2020 02:55 11.9 C 75 % 1016.4 hPa 0.0 l/m 3.4 km/h (1 Bft) N-NW 347 0 min 0 W/m 7.6 C 11.9 C 6.4 km/h (2 Bft)
02.06.2020 02:50 11.8 C 75 % 1016.4 hPa 0.0 l/m 2.7 km/h (1 Bft) N-NW 348 0 min 0 W/m 7.5 C 11.8 C 4.8 km/h (1 Bft)
02.06.2020 02:45 11.9 C 75 % 1016.4 hPa 0.0 l/m 0.6 km/h (0 Bft) N-NW 348 0 min 0 W/m 7.6 C 11.9 C 3.2 km/h (1 Bft)
02.06.2020 02:40 12.0 C 74 % 1016.5 hPa 0.0 l/m 0.6 km/h (0 Bft) N-NW 348 0 min 0 W/m 7.5 C 12.0 C 3.2 km/h (1 Bft)
02.06.2020 02:35 12.2 C 74 % 1016.6 hPa 0.0 l/m 1.7 km/h (1 Bft) N-NW 348 0 min 0 W/m 7.7 C 12.2 C 4.8 km/h (1 Bft)
02.06.2020 02:30 12.3 C 73 % 1016.6 hPa 0.0 l/m 1.3 km/h (1 Bft) N-NW 348 0 min 0 W/m 7.6 C 12.3 C 3.2 km/h (1 Bft)
02.06.2020 02:25 12.4 C 73 % 1016.7 hPa 0.0 l/m 1.9 km/h (1 Bft) N-NW 348 0 min 0 W/m 7.7 C 12.4 C 4.8 km/h (1 Bft)
02.06.2020 02:20 12.3 C 73 % 1016.7 hPa 0.0 l/m 1.3 km/h (1 Bft) N-NW 348 0 min 0 W/m 7.6 C 12.3 C 4.8 km/h (1 Bft)
02.06.2020 02:15 12.3 C 73 % 1016.7 hPa 0.0 l/m 3.1 km/h (1 Bft) N-NW 348 0 min 0 W/m 7.6 C 12.3 C 6.4 km/h (2 Bft)
02.06.2020 02:10 12.6 C 73 % 1016.7 hPa 0.0 l/m 3.3 km/h (1 Bft) N-NW 347 0 min 0 W/m 7.9 C 12.6 C 6.4 km/h (2 Bft)
02.06.2020 02:05 12.7 C 72 % 1016.8 hPa 0.0 l/m 2.8 km/h (1 Bft) N-NW 346 0 min 0 W/m 7.8 C 12.7 C 4.8 km/h (1 Bft)
02.06.2020 02:00 12.9 C 72 % 1016.9 hPa 0.0 l/m 2.2 km/h (1 Bft) N-NW 346 0 min 0 W/m 8.0 C 12.9 C 4.8 km/h (1 Bft)
02.06.2020 01:55 13.1 C 71 % 1016.9 hPa 0.0 l/m 2.6 km/h (1 Bft) N-NW 346 0 min 0 W/m 8.0 C 13.1 C 4.8 km/h (1 Bft)
02.06.2020 01:50 12.9 C 72 % 1016.9 hPa 0.0 l/m 2.3 km/h (1 Bft) N-NW 346 0 min 0 W/m 8.0 C 12.9 C 4.8 km/h (1 Bft)
02.06.2020 01:45 12.6 C 73 % 1016.9 hPa 0.0 l/m 3.8 km/h (1 Bft) N-NW 345 0 min 0 W/m 7.9 C 12.6 C 6.4 km/h (2 Bft)
02.06.2020 01:40 12.4 C 74 % 1017.0 hPa 0.0 l/m 5.1 km/h (1 Bft) N-NW 338 0 min 0 W/m 7.9 C 12.4 C 8.0 km/h (2 Bft)
02.06.2020 01:35 12.6 C 72 % 1017.0 hPa 0.0 l/m 2.4 km/h (1 Bft) SO 134 0 min 0 W/m 7.7 C 12.6 C 4.8 km/h (1 Bft)
02.06.2020 01:30 12.7 C 72 % 1017.0 hPa 0.0 l/m 1.4 km/h (1 Bft) SO 134 0 min 0 W/m 7.8 C 12.7 C 4.8 km/h (1 Bft)
02.06.2020 01:25 12.6 C 72 % 1017.0 hPa 0.0 l/m 2.1 km/h (1 Bft) SO 134 0 min 0 W/m 7.7 C 12.6 C 3.2 km/h (1 Bft)
02.06.2020 01:20 12.7 C 72 % 1017.1 hPa 0.0 l/m 3.0 km/h (1 Bft) SO 134 0 min 0 W/m 7.8 C 12.7 C 4.8 km/h (1 Bft)
02.06.2020 01:15 12.8 C 71 % 1017.1 hPa 0.0 l/m 2.7 km/h (1 Bft) SO 133 0 min 0 W/m 7.7 C 12.8 C 4.8 km/h (1 Bft)
02.06.2020 01:10 13.2 C 70 % 1017.1 hPa 0.0 l/m 3.8 km/h (1 Bft) SO 132 0 min 0 W/m 7.9 C 13.2 C 6.4 km/h (2 Bft)
02.06.2020 01:05 13.5 C 69 % 1017.2 hPa 0.0 l/m 2.8 km/h (1 Bft) SO 134 0 min 0 W/m 7.9 C 13.5 C 4.8 km/h (1 Bft)
02.06.2020 01:00 13.7 C 69 % 1017.2 hPa 0.0 l/m 2.4 km/h (1 Bft) SO 137 0 min 0 W/m 8.1 C 13.7 C 4.8 km/h (1 Bft)
02.06.2020 00:55 13.6 C 69 % 1017.1 hPa 0.0 l/m 2.9 km/h (1 Bft) SO 137 0 min 0 W/m 8.0 C 13.6 C 4.8 km/h (1 Bft)
02.06.2020 00:50 13.5 C 70 % 1017.1 hPa 0.0 l/m 1.8 km/h (1 Bft) SO 137 0 min 0 W/m 8.1 C 13.5 C 3.2 km/h (1 Bft)
02.06.2020 00:45 13.5 C 69 % 1017.2 hPa 0.0 l/m 0.8 km/h (0 Bft) SO 137 0 min 0 W/m 7.9 C 13.5 C 1.6 km/h (1 Bft)
02.06.2020 00:40 13.6 C 69 % 1017.3 hPa 0.0 l/m 1.3 km/h (1 Bft) SO 137 0 min 0 W/m 8.0 C 13.6 C 3.2 km/h (1 Bft)
02.06.2020 00:35 13.8 C 68 % 1017.4 hPa 0.0 l/m 0.9 km/h (0 Bft) SO 137 0 min 0 W/m 8.0 C 13.8 C 3.2 km/h (1 Bft)
02.06.2020 00:30 13.9 C 68 % 1017.4 hPa 0.0 l/m 0.9 km/h (0 Bft) SO 137 0 min 0 W/m 8.1 C 13.9 C 3.2 km/h (1 Bft)
02.06.2020 00:25 14.1 C 67 % 1017.4 hPa 0.0 l/m 2.0 km/h (1 Bft) SO 137 0 min 0 W/m 8.1 C 14.1 C 3.2 km/h (1 Bft)
02.06.2020 00:20 14.2 C 67 % 1017.4 hPa 0.0 l/m 2.9 km/h (1 Bft) SO 137 0 min 0 W/m 8.2 C 14.2 C 4.8 km/h (1 Bft)
02.06.2020 00:15 14.3 C 67 % 1017.5 hPa 0.0 l/m 1.4 km/h (1 Bft) SO 137 0 min 0 W/m 8.3 C 14.3 C 3.2 km/h (1 Bft)
02.06.2020 00:10 14.4 C 66 % 1017.4 hPa 0.0 l/m 0.8 km/h (0 Bft) SO 137 0 min 0 W/m 8.1 C 14.4 C 3.2 km/h (1 Bft)
02.06.2020 00:05 14.7 C 65 % 1017.5 hPa 0.0 l/m 0.1 km/h (0 Bft) SO 137 0 min 0 W/m 8.2 C 14.7 C 1.6 km/h (1 Bft)
02.06.2020 00:00 14.9 C 64 % 1017.5 hPa 0.0 l/m 1.0 km/h (0 Bft) SO 137 0 min 0 W/m 8.2 C 14.9 C 3.2 km/h (1 Bft)
_ Min-Zeit 05:45 12:15 12:15 - 05:45 - - - - 05:45 05:45 05:45
Minimum _ 9.1 C 44 % 1015.6 hPa - 0.0 km/h (0 Bft) - - - - 5.8 C 9.1 C 0.0 km/h (0 Bft)
_ Max-Zeit 12:15 05:55 00:00 00:00 11:55 - - 07:10 12:15 11:20 12:15 11:15
Maximum _ 23.2 C 81 % 1017.5 hPa 0.0 l/m 11.3 km/h
SO (2 Bft)
- - 5 min 837 W/m 11.0 C 23.1 C 20.9 km/h
O (4 Bft)
Durchschnitt _ 14.9 C 66 % 1016.7 hPa #0.0 l/m 2.7 km/h (1 Bft) SO - #5:00 h 419 W/m 8.3 C 14.9 C 6.0 km/h (2 Bft)
sponsored by www.loveroomdeluxe.ch